createdAt,value
2018-04-22T00:03:40.289Z,19.60
2018-04-22T00:08:31.821Z,19.27
2018-04-22T00:13:23.393Z,18.87
2018-04-22T00:18:15.651Z,19.43
2018-04-22T00:23:07.899Z,19.53
2018-04-22T00:28:00.138Z,21.17
2018-04-22T00:32:51.668Z,19.53
2018-04-22T00:37:43.170Z,19.03
2018-04-22T00:42:34.703Z,20.00
2018-04-22T00:47:26.217Z,19.17
2018-04-22T00:52:17.702Z,18.87
2018-04-22T00:57:09.206Z,18.57
2018-04-22T01:02:00.692Z,18.73
2018-04-22T01:06:52.915Z,18.87
2018-04-22T01:11:44.419Z,18.20
2018-04-22T01:16:35.958Z,18.57
2018-04-22T01:21:27.465Z,18.10
2018-04-22T01:26:18.960Z,17.87
2018-04-22T01:31:10.460Z,18.50
2018-04-22T01:36:02.017Z,18.07
2018-04-22T01:40:53.889Z,18.10
2018-04-22T01:45:46.153Z,17.77
2018-04-22T01:50:38.385Z,17.57
2018-04-22T01:55:29.922Z,18.73
2018-04-22T02:00:22.176Z,17.47
2018-04-22T02:05:14.464Z,17.87
2018-04-22T02:10:05.960Z,17.43
2018-04-22T02:14:58.241Z,16.90
2018-04-22T02:19:49.737Z,17.53
2018-04-22T02:24:41.224Z,17.33
2018-04-22T02:29:32.761Z,18.50
2018-04-22T02:34:24.312Z,18.17
2018-04-22T02:39:15.849Z,17.87
2018-04-22T02:44:07.365Z,17.63
2018-04-22T02:48:58.905Z,16.83
2018-04-22T02:53:50.409Z,17.60
2018-04-22T02:58:41.906Z,18.53
2018-04-22T03:03:34.167Z,18.23
2018-04-22T03:08:26.403Z,18.33
2018-04-22T03:13:17.907Z,18.30
2018-04-22T03:18:09.413Z,18.40
2018-04-22T03:23:00.918Z,19.03
2018-04-22T03:27:53.173Z,18.30
2018-04-22T03:32:45.426Z,18.77
2018-04-22T03:37:37.669Z,18.10
2018-04-22T03:42:29.912Z,18.87
2018-04-22T03:47:22.158Z,18.03
2018-04-22T03:52:13.653Z,19.33
2018-04-22T03:57:05.171Z,19.03
2018-04-22T04:01:56.671Z,18.67
2018-04-22T04:06:48.915Z,19.83
2018-04-22T04:11:41.162Z,19.80
2018-04-22T04:16:33.405Z,19.27
2018-04-22T04:21:43.411Z,19.07
2018-04-22T04:27:07.168Z,19.67
2018-04-22T04:31:58.669Z,19.17
2018-04-22T04:36:50.169Z,20.07
2018-04-22T04:41:41.679Z,18.60
2018-04-22T04:46:33.929Z,18.90
2018-04-22T04:51:26.236Z,19.00
2018-04-22T04:56:17.750Z,19.07
2018-04-22T05:01:09.237Z,19.40
2018-04-22T05:06:00.724Z,19.47
2018-04-22T05:10:52.288Z,19.50
2018-04-22T05:15:43.803Z,19.90
2018-04-22T05:20:35.313Z,20.63
2018-04-22T05:25:26.823Z,20.80
2018-04-22T05:30:19.088Z,20.00
2018-04-22T05:35:10.583Z,20.27
2018-04-22T05:40:02.096Z,19.87
2018-04-22T05:44:53.591Z,18.90
2018-04-22T05:49:45.099Z,18.80
2018-04-22T05:54:37.325Z,18.60
2018-04-22T05:59:28.838Z,18.50
2018-04-22T06:04:20.453Z,18.43
2018-04-22T06:09:11.968Z,17.83
2018-04-22T06:14:04.227Z,17.60
2018-04-22T06:18:55.721Z,18.00
2018-04-22T06:23:47.259Z,18.30
2018-04-22T06:28:38.761Z,16.90
2018-04-22T06:33:30.251Z,16.47
2018-04-22T06:38:22.518Z,17.30
2018-04-22T06:43:14.031Z,17.20
2018-04-22T06:48:06.271Z,17.07
2018-04-22T06:52:58.526Z,16.97
2018-04-22T06:57:51.802Z,17.00
2018-04-22T07:02:44.065Z,15.93
2018-04-22T07:07:36.310Z,16.40
2018-04-22T07:12:28.545Z,16.73
2018-04-22T07:17:20.051Z,16.97
2018-04-22T07:22:11.556Z,15.47
2018-04-22T07:27:03.071Z,16.17
2018-04-22T07:31:54.577Z,15.37
2018-04-22T07:36:46.070Z,15.40
2018-04-22T07:41:37.636Z,15.53
2018-04-22T07:46:29.123Z,15.67
2018-04-22T07:51:20.657Z,15.80
2018-04-22T07:56:12.164Z,14.87
2018-04-22T08:01:04.415Z,14.67
2018-04-22T08:05:56.691Z,14.37
2018-04-22T08:10:48.191Z,14.57
2018-04-22T08:15:40.471Z,13.63
2018-04-22T08:20:31.991Z,14.03
2018-04-22T08:25:24.252Z,13.23
2018-04-22T08:30:15.732Z,13.07
2018-04-22T08:35:07.230Z,12.20
2018-04-22T08:39:58.756Z,12.43
2018-04-22T08:44:50.255Z,10.27
2018-04-22T08:49:42.508Z,11.03
2018-04-22T08:54:34.822Z,10.73
2018-04-22T08:59:26.361Z,10.13
2018-04-22T09:04:17.889Z,9.60
2018-04-22T09:09:09.396Z,9.73
2018-04-22T09:14:00.934Z,9.60
2018-04-22T09:18:52.475Z,9.43
2018-04-22T09:23:43.963Z,9.87
2018-04-22T09:28:36.224Z,7.43
2018-04-22T09:33:28.471Z,9.07
2018-04-22T09:38:20.759Z,7.30
2018-04-22T09:43:12.266Z,5.97
2018-04-22T09:48:03.804Z,7.33
2018-04-22T09:52:56.053Z,7.60
2018-04-22T09:57:47.599Z,7.13
2018-04-22T10:02:39.117Z,7.60
2018-04-22T10:07:31.517Z,7.70
2018-04-22T10:12:23.025Z,8.00
2018-04-22T10:17:14.918Z,7.60
2018-04-22T10:22:06.439Z,7.20
2018-04-22T10:26:58.043Z,6.67
2018-04-22T10:31:49.547Z,5.87
2018-04-22T10:36:41.802Z,5.20
2018-04-22T10:41:34.053Z,5.00
2018-04-22T10:46:27.312Z,5.10
2018-04-22T10:51:19.010Z,5.60
2018-04-22T10:56:11.368Z,5.67
2018-04-22T11:01:02.946Z,6.13
2018-04-22T11:05:55.181Z,6.13
2018-04-22T11:10:46.681Z,6.10
2018-04-22T11:15:38.153Z,5.63
2018-04-22T11:20:29.665Z,6.07
2018-04-22T11:25:21.899Z,6.30
2018-04-22T11:30:13.382Z,6.13
2018-04-22T11:35:06.409Z,5.57
2018-04-22T11:39:57.892Z,5.70
2018-04-22T11:44:50.161Z,5.20
2018-04-22T11:49:41.655Z,5.27
2018-04-22T11:54:33.160Z,5.47
2018-04-22T11:59:24.790Z,5.10
2018-04-22T12:04:16.301Z,5.77
2018-04-22T12:09:07.819Z,5.43
2018-04-22T12:14:00.971Z,6.10
2018-04-22T12:18:52.610Z,5.40
2018-04-22T12:23:44.860Z,4.53
2018-04-22T12:28:37.106Z,4.63
2018-04-22T12:33:29.137Z,4.70
2018-04-22T12:38:20.784Z,4.70
2018-04-22T12:43:13.159Z,4.20
2018-04-22T12:48:04.655Z,4.20
2018-04-22T12:52:56.161Z,4.47
2018-04-22T12:57:47.731Z,4.90
2018-04-22T13:02:39.262Z,4.90
2018-04-22T13:07:30.751Z,4.47
2018-04-22T13:12:22.285Z,4.40
2018-04-22T13:17:13.817Z,7.07
2018-04-22T13:22:05.362Z,4.73
2018-04-22T13:26:56.866Z,5.50
2018-04-22T13:31:49.138Z,5.27
2018-04-22T13:36:40.650Z,6.00
2018-04-22T13:41:32.924Z,5.40
2018-04-22T13:46:24.462Z,5.93
2018-04-22T13:51:15.999Z,6.23
2018-04-22T13:56:07.526Z,6.00
2018-04-22T14:00:59.035Z,5.10
2018-04-22T14:05:51.288Z,5.07
2018-04-22T14:10:43.565Z,5.43
2018-04-22T14:15:35.095Z,5.20
2018-04-22T14:20:26.634Z,9.87
2018-04-22T14:25:18.174Z,8.87
2018-04-22T14:30:10.837Z,7.93
2018-04-22T14:35:02.357Z,9.07
2018-04-22T14:39:53.857Z,8.83
2018-04-22T14:45:04.647Z,11.70
2018-04-22T14:49:56.903Z,10.97
2018-04-22T14:54:49.139Z,10.57
2018-04-22T14:59:40.611Z,10.20
2018-04-22T15:04:32.092Z,10.07
2018-04-22T15:09:23.604Z,9.37
2018-04-22T15:14:15.110Z,9.50
2018-04-22T15:19:06.604Z,10.30
2018-04-22T15:23:58.118Z,8.90
2018-04-22T15:28:49.626Z,8.60
2018-04-22T15:33:41.146Z,10.40
2018-04-22T15:38:32.672Z,9.73
2018-04-22T15:43:24.160Z,9.73
2018-04-22T15:48:15.662Z,8.40
2018-04-22T15:53:07.153Z,8.93
2018-04-22T15:57:59.414Z,10.33
2018-04-22T16:02:51.654Z,9.77
2018-04-22T16:07:43.886Z,9.73
2018-04-22T16:12:35.367Z,9.43
2018-04-22T16:17:26.851Z,7.57
2018-04-22T16:22:19.196Z,5.13
2018-04-22T16:27:10.705Z,4.90
2018-04-22T16:32:02.265Z,4.53
2018-04-22T16:36:53.751Z,5.67
2018-04-22T16:41:45.311Z,5.50
2018-04-22T16:46:36.821Z,5.63
2018-04-22T16:51:28.422Z,6.03
2018-04-22T16:56:19.963Z,6.37
2018-04-22T17:01:12.224Z,6.03
2018-04-22T17:06:05.531Z,6.50
2018-04-22T17:10:57.065Z,5.67
2018-04-22T17:15:48.617Z,5.83
2018-04-22T17:20:40.121Z,5.80
2018-04-22T17:25:32.007Z,7.17
2018-04-22T17:30:24.298Z,7.80
2018-04-22T17:35:16.547Z,7.63
2018-04-22T17:40:08.784Z,7.67
2018-04-22T17:45:00.286Z,7.17
2018-04-22T17:49:51.769Z,8.13
2018-04-22T17:54:44.002Z,8.20
2018-04-22T17:59:35.591Z,8.47
2018-04-22T18:04:27.145Z,7.93
2018-04-22T18:09:18.729Z,7.60
2018-04-22T18:14:10.274Z,7.77
2018-04-22T18:19:02.365Z,6.90
2018-04-22T18:23:53.880Z,6.80
2018-04-22T18:28:45.496Z,6.53
2018-04-22T18:33:37.025Z,6.03
2018-04-22T18:38:28.546Z,6.50
2018-04-22T18:43:20.077Z,6.53
2018-04-22T18:48:12.440Z,6.50
2018-04-22T18:53:03.935Z,6.50
2018-04-22T18:57:55.448Z,5.53
2018-04-22T19:02:47.698Z,6.83
2018-04-22T19:07:39.198Z,7.00
2018-04-22T19:12:30.673Z,6.60
2018-04-22T19:17:22.191Z,6.83
2018-04-22T19:22:13.726Z,8.47
2018-04-22T19:27:06.203Z,6.13
2018-04-22T19:31:59.002Z,6.33
2018-04-22T19:36:51.341Z,6.17
2018-04-22T19:41:44.476Z,7.33
2018-04-22T19:46:36.813Z,7.47
2018-04-22T19:51:28.313Z,8.47
2018-04-22T19:56:20.563Z,9.07
2018-04-22T20:01:13.181Z,7.63
2018-04-22T20:06:05.592Z,6.70
2018-04-22T20:10:57.160Z,7.63
2018-04-22T20:15:48.711Z,6.70
2018-04-22T20:20:40.318Z,10.03
2018-04-22T20:25:31.791Z,7.20
2018-04-22T20:30:23.309Z,8.07
2018-04-22T20:35:14.812Z,6.33
2018-04-22T20:40:06.405Z,6.83
2018-04-22T20:44:58.819Z,6.17
2018-04-22T20:49:50.405Z,7.20
2018-04-22T20:54:42.761Z,8.57
2018-04-22T20:59:35.038Z,6.73
2018-04-22T21:04:26.660Z,5.50
2018-04-22T21:09:18.162Z,6.10
2018-04-22T21:14:09.662Z,6.20
2018-04-22T21:19:01.211Z,6.30
2018-04-22T21:23:52.761Z,6.63
2018-04-22T21:28:44.368Z,7.07
2018-04-22T21:33:35.858Z,6.93
2018-04-22T21:38:27.401Z,6.77
2018-04-22T21:43:19.019Z,7.03
2018-04-22T21:48:11.302Z,6.17
2018-04-22T21:53:02.824Z,7.03
2018-04-22T21:57:54.339Z,6.70
2018-04-22T22:02:46.555Z,6.17
2018-04-22T22:07:38.090Z,6.23
2018-04-22T22:12:29.606Z,6.83
2018-04-22T22:17:21.130Z,9.57
2018-04-22T22:22:12.634Z,7.50
2018-04-22T22:27:04.865Z,6.30
2018-04-22T22:31:56.377Z,6.87
2018-04-22T22:36:48.143Z,7.43
2018-04-22T22:41:40.391Z,7.23
2018-04-22T22:46:31.909Z,6.73
2018-04-22T22:51:23.409Z,7.50
2018-04-22T22:56:14.927Z,7.67
2018-04-22T23:01:06.422Z,8.37
2018-04-22T23:05:57.953Z,8.13
2018-04-22T23:10:50.411Z,6.83
2018-04-22T23:15:41.945Z,7.17
2018-04-22T23:20:33.436Z,6.87
2018-04-22T23:25:24.963Z,7.77
2018-04-22T23:30:16.442Z,7.37
2018-04-22T23:35:08.025Z,7.13
2018-04-22T23:39:59.520Z,7.20
2018-04-22T23:44:51.039Z,7.37
2018-04-22T23:49:42.546Z,6.97
2018-04-22T23:54:34.043Z,6.13
2018-04-22T23:59:25.585Z,7.30
